Time;durP1;ratioP1;P1;durP2;ratioP2;P2;SDS_P1;SDS_P2;PMS_P1;PMS_P2;Temp;Humidity;BMP_temperature;BMP_pressure;BME280_temperature;BME280_humidity;BME280_pressure;Samples;Min_cycle;Max_cycle;Signal;HPM_P1;HPM_P2
2024/03/11 00:02:06;;;;;;;;;;;4.60;99.90;;;;;;4988809;28;19976;-62
2024/03/11 00:04:39;;;;;;;;;;;4.60;99.90;;;;;;4988589;28;19933;-62
2024/03/11 00:07:13;;;;;;;;;;;4.60;99.90;;;;;;4975302;28;20425;-62
2024/03/11 00:09:45;;;;;;;;;;;4.50;99.90;;;;;;4989526;28;19969;-62
2024/03/11 00:12:22;;;;;;;;;;;4.50;99.90;;;;;;4970431;28;19936;-62
2024/03/11 00:14:54;;;;;;;;;;;4.50;99.90;;;;;;4980907;28;20429;-62
2024/03/11 00:17:26;;;;;;;;;;;4.50;99.90;;;;;;4995847;28;19964;-62
2024/03/11 00:19:57;;;;;;;;;;;4.50;99.90;;;;;;4998836;28;19975;-62
2024/03/11 00:22:30;;;;;;;;;;;4.60;99.90;;;;;;4984785;28;20405;-63
2024/03/11 00:25:02;;;;;;;;;;;4.70;99.90;;;;;;5000328;28;19932;-63
2024/03/11 00:27:37;;;;;;;;;;;4.70;99.90;;;;;;4999280;28;19934;-63
2024/03/11 00:30:06;;;;;;;;;;;4.70;99.90;;;;;;4997845;28;20024;-62
2024/03/11 00:32:33;;;;;;;;;;;4.80;99.90;;;;;;4998570;28;20020;-62
2024/03/11 00:34:59;;;;;;;;;;;4.80;99.90;;;;;;4999942;28;19925;-62
2024/03/11 00:37:31;;;;;;;;;;;4.80;99.90;;;;;;4984749;28;19976;-62
2024/03/11 00:40:06;;;;;;;;;;;4.80;99.90;;;;;;4994764;28;20021;-62
2024/03/11 00:42:40;;;;;;;;;;;4.80;99.90;;;;;;4982643;28;19926;-62
2024/03/11 00:45:10;;;;;;;;;;;4.80;99.90;;;;;;4987686;28;19931;-62
2024/03/11 00:47:39;;;;;;;;;;;4.70;99.90;;;;;;4984469;28;19933;-61
2024/03/11 00:50:12;;;;;;;;;;;4.70;99.90;;;;;;4999618;28;20053;-62
2024/03/11 00:52:44;;;;;;;;;;;4.70;99.90;;;;;;4996988;28;19968;-62
2024/03/11 00:55:17;;;;;;;;;;;4.70;99.90;;;;;;4997741;28;19947;-62
2024/03/11 00:57:49;;;;;;;;;;;4.70;99.90;;;;;;4987135;28;20024;-62
2024/03/11 01:00:22;;;;;;;;;;;4.70;99.90;;;;;;4973035;28;19926;-62
2024/03/11 01:02:52;;;;;;;;;;;4.80;99.90;;;;;;4982451;28;19926;-62
2024/03/11 01:05:24;;;;;;;;;;;4.80;99.90;;;;;;4986023;28;19933;-62
2024/03/11 01:07:56;;;;;;;;;;;4.80;99.90;;;;;;4973303;28;19934;-62
2024/03/11 01:10:27;;;;;;;;;;;4.80;99.90;;;;;;4975320;28;20414;-62
2024/03/11 01:12:59;;;;;;;;;;;4.80;99.90;;;;;;4981563;28;19933;-62
2024/03/11 01:15:31;;;;;;;;;;;4.80;99.90;;;;;;4972389;28;19930;-62
2024/03/11 01:18:04;;;;;;;;;;;4.90;99.90;;;;;;4975625;28;19932;-62
2024/03/11 01:20:30;;;;;;;;;;;5.00;99.90;;;;;;4985638;28;19930;-62
2024/03/11 01:23:05;;;;;;;;;;;5.00;99.90;;;;;;4983919;28;20300;-62
2024/03/11 01:25:37;;;;;;;;;;;5.00;99.90;;;;;;4983946;28;19933;-62
2024/03/11 01:28:07;;;;;;;;;;;5.10;99.90;;;;;;4986517;28;20376;-62
2024/03/11 01:30:35;;;;;;;;;;;5.10;99.90;;;;;;4982420;28;19926;-62
2024/03/11 01:33:06;;;;;;;;;;;5.10;99.90;;;;;;4977491;28;19934;-62
2024/03/11 01:35:36;;;;;;;;;;;5.10;99.90;;;;;;4986341;28;19972;-62
2024/03/11 01:38:11;;;;;;;;;;;5.10;99.90;;;;;;4978538;28;20445;-62
2024/03/11 01:40:42;;;;;;;;;;;5.10;99.90;;;;;;4979192;28;19930;-62
2024/03/11 01:43:17;;;;;;;;;;;5.10;99.90;;;;;;4985324;28;19930;-62
2024/03/11 01:45:49;;;;;;;;;;;5.10;99.90;;;;;;4973410;28;19932;-62
2024/03/11 01:48:21;;;;;;;;;;;5.10;99.90;;;;;;4981129;28;19985;-62
2024/03/11 01:50:48;;;;;;;;;;;5.20;99.90;;;;;;4971993;28;20013;-62
2024/03/11 01:53:21;;;;;;;;;;;5.20;99.90;;;;;;4984249;28;20445;-62
2024/03/11 01:55:52;;;;;;;;;;;5.20;99.90;;;;;;4980097;28;20028;-62
2024/03/11 01:58:20;;;;;;;;;;;5.20;99.90;;;;;;4981848;28;20375;-62
2024/03/11 02:00:47;;;;;;;;;;;5.10;99.90;;;;;;4981998;28;20020;-62
2024/03/11 02:03:20;;;;;;;;;;;5.10;99.90;;;;;;4975298;28;19926;-62
2024/03/11 02:05:52;;;;;;;;;;;5.10;99.90;;;;;;4981319;28;19930;-62
2024/03/11 02:08:22;;;;;;;;;;;5.10;99.90;;;;;;4980017;28;20036;-62
2024/03/11 02:10:54;;;;;;;;;;;5.10;99.90;;;;;;4984091;28;19926;-62
2024/03/11 02:13:21;;;;;;;;;;;5.10;99.90;;;;;;4984020;28;20009;-62
2024/03/11 02:15:53;;;;;;;;;;;5.10;99.90;;;;;;4973137;28;19925;-61
2024/03/11 02:18:25;;;;;;;;;;;5.10;99.90;;;;;;4973458;28;19930;-62
2024/03/11 02:20:57;;;;;;;;;;;5.10;99.90;;;;;;4983844;28;20390;-62
2024/03/11 02:23:29;;;;;;;;;;;5.10;99.90;;;;;;4985213;28;19936;-61
2024/03/11 02:26:00;;;;;;;;;;;5.10;99.90;;;;;;4978660;28;19926;-62
2024/03/11 02:28:32;;;;;;;;;;;5.10;99.90;;;;;;4975547;28;20387;-62
2024/03/11 02:31:04;;;;;;;;;;;5.10;99.90;;;;;;4980220;28;19952;-62
2024/03/11 02:33:36;;;;;;;;;;;5.10;99.90;;;;;;4978345;28;19957;-62
2024/03/11 02:36:08;;;;;;;;;;;5.10;99.90;;;;;;4983673;28;19926;-62
2024/03/11 02:38:40;;;;;;;;;;;5.10;99.90;;;;;;4984421;28;20377;-62
2024/03/11 02:41:11;;;;;;;;;;;5.00;99.90;;;;;;4972492;28;19926;-62
2024/03/11 02:43:43;;;;;;;;;;;5.00;99.90;;;;;;4983639;28;20028;-64
2024/03/11 02:46:16;;;;;;;;;;;5.00;99.90;;;;;;4985733;28;19933;-64
2024/03/11 02:48:47;;;;;;;;;;;5.00;99.90;;;;;;4981836;28;19933;-64
2024/03/11 02:51:14;;;;;;;;;;;5.10;99.90;;;;;;4976256;28;19930;-65
2024/03/11 02:53:46;;;;;;;;;;;5.10;99.90;;;;;;4985788;28;19926;-65
2024/03/11 02:56:18;;;;;;;;;;;5.10;99.90;;;;;;4976324;28;19926;-64
2024/03/11 02:58:50;;;;;;;;;;;5.10;99.90;;;;;;4983369;28;19944;-64
2024/03/11 03:01:22;;;;;;;;;;;5.10;99.90;;;;;;4948476;28;19926;-64
2024/03/11 03:03:54;;;;;;;;;;;5.00;99.90;;;;;;4982828;28;19953;-64
2024/03/11 03:06:21;;;;;;;;;;;5.00;99.90;;;;;;4985723;28;19926;-64
2024/03/11 03:08:48;;;;;;;;;;;5.00;99.90;;;;;;4986671;28;20382;-64
2024/03/11 03:11:20;;;;;;;;;;;4.90;99.90;;;;;;4985747;28;20317;-65
2024/03/11 03:13:51;;;;;;;;;;;4.80;99.90;;;;;;4971171;28;19929;-65
2024/03/11 03:16:23;;;;;;;;;;;4.80;99.90;;;;;;4988960;28;19926;-65
2024/03/11 03:18:55;;;;;;;;;;;4.80;99.90;;;;;;4982440;28;19926;-65
2024/03/11 03:21:27;;;;;;;;;;;4.80;99.90;;;;;;4979607;28;20017;-65
2024/03/11 03:23:59;;;;;;;;;;;4.70;99.90;;;;;;4982896;28;19926;-64
2024/03/11 03:26:30;;;;;;;;;;;4.70;99.90;;;;;;4974985;28;20489;-64
2024/03/11 03:29:02;;;;;;;;;;;4.70;99.90;;;;;;4986719;28;20401;-65
2024/03/11 03:31:34;;;;;;;;;;;4.60;99.90;;;;;;4987700;28;19933;-64
2024/03/11 03:34:01;;;;;;;;;;;4.60;99.90;;;;;;4985383;28;20025;-64
2024/03/11 03:36:28;;;;;;;;;;;4.50;99.90;;;;;;4985737;28;19957;-64
2024/03/11 03:38:56;;;;;;;;;;;4.50;99.90;;;;;;4984135;28;19961;-64
2024/03/11 03:41:27;;;;;;;;;;;4.50;99.90;;;;;;4986140;28;20021;-64
2024/03/11 03:44:00;;;;;;;;;;;4.50;99.90;;;;;;4981226;28;20383;-65
2024/03/11 03:46:32;;;;;;;;;;;4.50;99.90;;;;;;4984177;28;19985;-64
2024/03/11 03:49:03;;;;;;;;;;;4.50;99.90;;;;;;4981965;28;20420;-64
2024/03/11 03:51:35;;;;;;;;;;;4.50;99.90;;;;;;4979925;28;19965;-65
2024/03/11 03:54:07;;;;;;;;;;;4.60;99.90;;;;;;4985726;28;19937;-65
2024/03/11 03:56:38;;;;;;;;;;;4.50;99.90;;;;;;4985271;28;19926;-64
2024/03/11 03:59:11;;;;;;;;;;;4.50;99.90;;;;;;4983320;28;19979;-64
2024/03/11 04:01:42;;;;;;;;;;;4.50;99.90;;;;;;4985833;28;19932;-64
2024/03/11 04:04:09;;;;;;;;;;;4.40;99.90;;;;;;4975635;28;19930;-65
2024/03/11 04:06:41;;;;;;;;;;;4.40;99.90;;;;;;4984778;28;19932;-64
2024/03/11 04:09:14;;;;;;;;;;;4.30;99.90;;;;;;4972244;28;20403;-65
2024/03/11 04:11:41;;;;;;;;;;;4.30;99.90;;;;;;4981888;28;19930;-65
2024/03/11 04:14:12;;;;;;;;;;;4.30;99.90;;;;;;4984913;28;19934;-64
2024/03/11 04:16:44;;;;;;;;;;;4.30;99.90;;;;;;4978144;28;19965;-64
2024/03/11 04:19:17;;;;;;;;;;;4.30;99.90;;;;;;4985025;28;20034;-64
2024/03/11 04:21:49;;;;;;;;;;;4.30;99.90;;;;;;4983018;28;19926;-64
2024/03/11 04:24:21;;;;;;;;;;;4.30;99.90;;;;;;4986121;28;19926;-64
2024/03/11 04:26:55;;;;;;;;;;;4.30;99.90;;;;;;4985969;28;20429;-64
2024/03/11 04:29:27;;;;;;;;;;;4.30;99.90;;;;;;4974391;28;19934;-64
2024/03/11 04:31:56;;;;;;;;;;;4.40;99.90;;;;;;4982188;28;19936;-65
2024/03/11 04:34:28;;;;;;;;;;;4.40;99.90;;;;;;4987439;28;19934;-64
2024/03/11 04:36:59;;;;;;;;;;;4.40;99.90;;;;;;4980425;28;19926;-64
2024/03/11 04:39:31;;;;;;;;;;;4.40;99.90;;;;;;4976862;28;20294;-65
2024/03/11 04:42:03;;;;;;;;;;;4.40;99.90;;;;;;4980734;28;19926;-64
2024/03/11 04:44:35;;;;;;;;;;;4.40;99.90;;;;;;4978147;28;19930;-64
2024/03/11 04:47:07;;;;;;;;;;;4.30;99.90;;;;;;4965882;28;19960;-64
2024/03/11 04:49:34;;;;;;;;;;;4.30;99.90;;;;;;4984146;28;20405;-61
2024/03/11 04:52:06;;;;;;;;;;;4.30;99.90;;;;;;4984313;28;20346;-62
2024/03/11 04:54:37;;;;;;;;;;;4.30;99.90;;;;;;4984244;28;19932;-61
2024/03/11 04:57:09;;;;;;;;;;;4.30;99.90;;;;;;4985212;28;19930;-62
2024/03/11 04:59:41;;;;;;;;;;;4.30;99.90;;;;;;4985325;28;19980;-62
2024/03/11 05:02:13;;;;;;;;;;;4.40;99.90;;;;;;4983363;28;19966;-61
2024/03/11 05:04:45;;;;;;;;;;;4.30;99.90;;;;;;4988140;28;19980;-62
2024/03/11 05:07:12;;;;;;;;;;;4.30;99.90;;;;;;4987326;28;19926;-62
2024/03/11 05:09:43;;;;;;;;;;;4.30;99.90;;;;;;4988452;28;20416;-62
2024/03/11 05:12:15;;;;;;;;;;;4.20;99.90;;;;;;4979455;28;20473;-62
2024/03/11 05:14:47;;;;;;;;;;;4.20;99.90;;;;;;4969649;28;19934;-62
2024/03/11 05:17:18;;;;;;;;;;;4.20;99.90;;;;;;4971850;28;19930;-61
2024/03/11 05:19:51;;;;;;;;;;;4.10;99.90;;;;;;4988884;28;20401;-62
2024/03/11 05:22:23;;;;;;;;;;;4.00;99.90;;;;;;4986453;28;19926;-62
2024/03/11 05:24:55;;;;;;;;;;;4.00;99.90;;;;;;4985010;28;19934;-62
2024/03/11 05:27:27;;;;;;;;;;;3.90;99.90;;;;;;4988619;28;20299;-63
2024/03/11 05:29:58;;;;;;;;;;;3.90;99.90;;;;;;4984634;28;19926;-62
2024/03/11 05:32:34;;;;;;;;;;;3.80;99.90;;;;;;4983939;28;20405;-62
2024/03/11 05:35:06;;;;;;;;;;;3.80;99.90;;;;;;4987211;28;19926;-62
2024/03/11 05:37:38;;;;;;;;;;;3.80;99.90;;;;;;4989294;28;19929;-61
2024/03/11 05:40:12;;;;;;;;;;;3.80;99.90;;;;;;4997341;28;19930;-64
2024/03/11 05:42:42;;;;;;;;;;;3.80;99.90;;;;;;4996324;28;19971;-64
2024/03/11 05:45:14;;;;;;;;;;;3.80;99.90;;;;;;4994397;28;20402;-64
2024/03/11 05:47:46;;;;;;;;;;;3.70;99.90;;;;;;4987970;28;20009;-64
2024/03/11 05:50:14;;;;;;;;;;;3.70;99.90;;;;;;4989395;28;19936;-63
2024/03/11 05:52:47;;;;;;;;;;;3.60;99.90;;;;;;4971128;28;19926;-64
2024/03/11 05:55:22;;;;;;;;;;;3.60;99.90;;;;;;4965414;28;20394;-64
2024/03/11 05:57:55;;;;;;;;;;;3.50;99.90;;;;;;4976300;28;19925;-64
2024/03/11 06:00:26;;;;;;;;;;;3.50;99.90;;;;;;4971632;28;19926;-64
2024/03/11 06:02:58;;;;;;;;;;;3.50;99.90;;;;;;4972182;28;19930;-64
2024/03/11 06:05:30;;;;;;;;;;;3.60;99.90;;;;;;4985621;28;20386;-64
2024/03/11 06:08:02;;;;;;;;;;;3.60;99.90;;;;;;4982700;28;20024;-64
2024/03/11 06:10:28;;;;;;;;;;;3.60;99.90;;;;;;4983217;28;19933;-64
2024/03/11 06:13:00;;;;;;;;;;;3.50;99.90;;;;;;4989244;28;20313;-63
2024/03/11 06:15:32;;;;;;;;;;;3.50;99.90;;;;;;4987412;28;20017;-64
2024/03/11 06:17:59;;;;;;;;;;;3.50;99.90;;;;;;4987919;28;20737;-64
2024/03/11 06:20:31;;;;;;;;;;;3.40;99.90;;;;;;4981016;28;19932;-64
2024/03/11 06:22:59;;;;;;;;;;;3.40;99.90;;;;;;4988352;28;19934;-64
2024/03/11 06:25:31;;;;;;;;;;;3.30;99.90;;;;;;4977455;28;19989;-61
2024/03/11 06:28:04;;;;;;;;;;;3.30;99.90;;;;;;4980752;28;19969;-61
2024/03/11 06:30:39;;;;;;;;;;;3.30;99.90;;;;;;4990544;28;19973;-61
2024/03/11 06:33:11;;;;;;;;;;;3.30;99.90;;;;;;4981419;28;19926;-61
2024/03/11 06:35:43;;;;;;;;;;;3.30;99.90;;;;;;4989713;28;19926;-61
2024/03/11 06:38:16;;;;;;;;;;;3.20;99.90;;;;;;4975326;28;19957;-62
2024/03/11 06:40:48;;;;;;;;;;;3.20;99.90;;;;;;4975831;28;20390;-62
2024/03/11 06:43:20;;;;;;;;;;;3.20;99.90;;;;;;4988068;28;19961;-61
2024/03/11 06:45:52;;;;;;;;;;;3.20;99.90;;;;;;4989798;28;20394;-61
2024/03/11 06:48:24;;;;;;;;;;;3.30;99.90;;;;;;4972703;28;20024;-61
2024/03/11 06:50:56;;;;;;;;;;;3.30;99.90;;;;;;4974105;28;19933;-61
2024/03/11 06:53:28;;;;;;;;;;;3.30;99.90;;;;;;4991588;28;19930;-61
2024/03/11 06:56:00;;;;;;;;;;;3.40;99.90;;;;;;4986451;28;20457;-61
2024/03/11 06:58:32;;;;;;;;;;;3.40;99.90;;;;;;4986881;28;19992;-61
2024/03/11 07:01:04;;;;;;;;;;;3.40;99.90;;;;;;4992466;28;20012;-62
2024/03/11 07:03:36;;;;;;;;;;;3.50;99.90;;;;;;4988244;28;19961;-62
2024/03/11 07:06:11;;;;;;;;;;;3.60;99.90;;;;;;4992311;28;19930;-62
2024/03/11 07:08:42;;;;;;;;;;;3.60;99.90;;;;;;4988942;28;20663;-62
2024/03/11 07:11:14;;;;;;;;;;;3.70;99.90;;;;;;4992552;28;20405;-61
2024/03/11 07:13:46;;;;;;;;;;;3.80;99.90;;;;;;4985959;28;19985;-61
2024/03/11 07:16:18;;;;;;;;;;;3.90;99.90;;;;;;4953998;28;19934;-61
2024/03/11 07:18:53;;;;;;;;;;;3.90;99.90;;;;;;4990426;28;20443;-61
2024/03/11 07:21:27;;;;;;;;;;;4.00;99.90;;;;;;4981225;28;19933;-62
2024/03/11 07:23:59;;;;;;;;;;;4.10;99.90;;;;;;4990463;28;19936;-64
2024/03/11 07:26:31;;;;;;;;;;;4.20;99.90;;;;;;4973645;28;19927;-62
2024/03/11 07:29:03;;;;;;;;;;;4.20;99.90;;;;;;4988898;28;19965;-62
2024/03/11 07:31:35;;;;;;;;;;;4.40;99.90;;;;;;4991057;28;20420;-60
2024/03/11 07:34:06;;;;;;;;;;;4.50;99.90;;;;;;4991440;28;20028;-62
2024/03/11 07:36:39;;;;;;;;;;;4.60;99.90;;;;;;4992075;28;19972;-62
2024/03/11 07:39:11;;;;;;;;;;;4.70;99.90;;;;;;4984299;28;19950;-61
2024/03/11 07:41:42;;;;;;;;;;;4.80;99.90;;;;;;4975403;28;19951;-62
2024/03/11 07:44:15;;;;;;;;;;;4.90;99.90;;;;;;4983385;28;19936;-61
2024/03/11 07:46:46;;;;;;;;;;;5.00;99.90;;;;;;4984468;28;19996;-62
2024/03/11 07:49:13;;;;;;;;;;;5.10;99.90;;;;;;4988757;28;19948;-61
2024/03/11 07:51:45;;;;;;;;;;;5.20;99.90;;;;;;4974173;28;19926;-61
2024/03/11 07:54:12;;;;;;;;;;;5.30;99.90;;;;;;4990700;28;20044;-61
2024/03/11 07:56:43;;;;;;;;;;;5.40;99.90;;;;;;4987978;28;20023;-62
2024/03/11 07:59:16;;;;;;;;;;;5.40;99.90;;;;;;4976491;28;19932;-61
2024/03/11 08:01:43;;;;;;;;;;;5.50;99.90;;;;;;4989805;28;19930;-61
2024/03/11 08:04:14;;;;;;;;;;;5.60;99.90;;;;;;4988091;28;20000;-61
2024/03/11 08:06:46;;;;;;;;;;;5.70;99.90;;;;;;4972227;28;19932;-61
2024/03/11 08:09:18;;;;;;;;;;;5.90;99.90;;;;;;4981952;28;20401;-62
2024/03/11 08:11:50;;;;;;;;;;;5.90;99.90;;;;;;4986876;28;19926;-61
2024/03/11 08:14:22;;;;;;;;;;;6.00;99.90;;;;;;4991658;28;19981;-62
2024/03/11 08:16:53;;;;;;;;;;;6.10;99.90;;;;;;4986271;28;20322;-61
2024/03/11 08:19:26;;;;;;;;;;;6.30;99.90;;;;;;4976198;28;19926;-62
2024/03/11 08:21:57;;;;;;;;;;;6.40;99.90;;;;;;4972570;28;20305;-61
2024/03/11 08:24:29;;;;;;;;;;;6.50;99.90;;;;;;4987919;28;20382;-62
2024/03/11 08:27:04;;;;;;;;;;;6.60;99.90;;;;;;4989089;28;19929;-62
2024/03/11 08:29:35;;;;;;;;;;;6.60;99.90;;;;;;4989128;28;19929;-61
2024/03/11 08:32:09;;;;;;;;;;;6.70;99.90;;;;;;4972957;28;19926;-62
2024/03/11 08:34:40;;;;;;;;;;;6.90;99.90;;;;;;4984381;28;19934;-61
2024/03/11 08:37:08;;;;;;;;;;;7.10;99.90;;;;;;4989474;28;20009;-61
2024/03/11 08:39:40;;;;;;;;;;;7.20;99.90;;;;;;4985020;28;20480;-60
2024/03/11 08:42:13;;;;;;;;;;;7.30;99.90;;;;;;4970640;28;20317;-62
2024/03/11 08:44:45;;;;;;;;;;;7.40;99.90;;;;;;4990703;28;19930;-62
2024/03/11 08:47:17;;;;;;;;;;;7.60;99.90;;;;;;4988526;28;19929;-61
2024/03/11 08:49:44;;;;;;;;;;;7.70;99.90;;;;;;4989860;28;19925;-61
2024/03/11 08:52:17;;;;;;;;;;;7.80;99.90;;;;;;4972755;28;20476;-61
2024/03/11 08:54:50;;;;;;;;;;;7.80;99.90;;;;;;4974865;28;19933;-61
2024/03/11 08:57:22;;;;;;;;;;;7.90;99.90;;;;;;4987033;28;19932;-62
2024/03/11 08:59:54;;;;;;;;;;;8.00;99.90;;;;;;4985765;28;19926;-62
2024/03/11 09:02:27;;;;;;;;;;;8.10;99.90;;;;;;4992051;28;19977;-61
2024/03/11 09:04:59;;;;;;;;;;;8.20;99.90;;;;;;4981437;28;19952;-63
2024/03/11 09:07:26;;;;;;;;;;;8.30;99.90;;;;;;4993452;28;19933;-62
2024/03/11 09:09:58;;;;;;;;;;;8.40;99.90;;;;;;4997804;28;20024;-62
2024/03/11 09:12:29;;;;;;;;;;;8.50;99.90;;;;;;4999697;28;20028;-62
2024/03/11 09:15:01;;;;;;;;;;;8.50;99.90;;;;;;4994334;28;20394;-62
2024/03/11 09:17:33;;;;;;;;;;;8.60;99.90;;;;;;4998163;28;20725;-62
2024/03/11 09:20:08;;;;;;;;;;;8.70;99.90;;;;;;4998123;28;19926;-62
2024/03/11 09:22:41;;;;;;;;;;;8.80;99.90;;;;;;4998106;28;19949;-62
2024/03/11 09:25:22;;;;;;;;;;;8.90;99.90;;;;;;4994326;28;19930;-62
2024/03/11 09:28:00;;;;;;;;;;;9.00;99.90;;;;;;4978674;28;20029;-62
2024/03/11 09:30:33;;;;;;;;;;;9.10;99.90;;;;;;4997030;28;19936;-62
2024/03/11 09:33:05;;;;;;;;;;;9.20;99.90;;;;;;4975621;28;19926;-62
2024/03/11 09:35:37;;;;;;;;;;;9.30;99.90;;;;;;4998248;28;19992;-63
2024/03/11 09:38:12;;;;;;;;;;;9.30;99.90;;;;;;4990895;28;20378;-63
2024/03/11 09:40:44;;;;;;;;;;;9.30;99.90;;;;;;4972281;28;20032;-63
2024/03/11 09:43:17;;;;;;;;;;;9.30;99.90;;;;;;4987453;28;19981;-62
2024/03/11 09:45:51;;;;;;;;;;;9.30;99.90;;;;;;4988079;28;19926;-62
2024/03/11 09:48:25;;;;;;;;;;;9.40;99.90;;;;;;4981811;28;19926;-61
2024/03/11 09:50:58;;;;;;;;;;;9.60;99.90;;;;;;4974496;28;19930;-60
2024/03/11 09:53:29;;;;;;;;;;;9.80;99.90;;;;;;4985683;28;20314;-62
2024/03/11 09:56:03;;;;;;;;;;;9.90;99.90;;;;;;4982335;28;19936;-62
2024/03/11 09:58:36;;;;;;;;;;;9.90;99.90;;;;;;4972213;28;19973;-62
2024/03/11 10:01:09;;;;;;;;;;;10.00;99.90;;;;;;4983486;28;20011;-62
2024/03/11 10:03:41;;;;;;;;;;;10.10;99.90;;;;;;4984056;28;19936;-62
2024/03/11 10:06:16;;;;;;;;;;;10.20;99.90;;;;;;4989598;28;19940;-62
2024/03/11 10:08:49;;;;;;;;;;;10.20;99.90;;;;;;4956798;28;19934;-62
2024/03/11 10:11:21;;;;;;;;;;;10.20;99.90;;;;;;4989514;28;19984;-61
2024/03/11 10:13:56;;;;;;;;;;;10.40;99.90;;;;;;4985329;28;19933;-62
2024/03/11 10:16:28;;;;;;;;;;;10.40;99.90;;;;;;4990382;28;19926;-62
2024/03/11 10:19:02;;;;;;;;;;;10.50;99.90;;;;;;4981956;28;19930;-62
2024/03/11 10:21:34;;;;;;;;;;;10.50;99.90;;;;;;4968864;28;19929;-63
2024/03/11 10:24:01;;;;;;;;;;;10.60;99.90;;;;;;4985679;28;20414;-64
2024/03/11 10:26:33;;;;;;;;;;;10.60;99.90;;;;;;4965150;28;20373;-64
2024/03/11 10:29:06;;;;;;;;;;;10.60;99.90;;;;;;4972349;28;19926;-64
2024/03/11 10:31:40;;;;;;;;;;;10.70;99.90;;;;;;4990708;28;19930;-64
2024/03/11 10:34:13;;;;;;;;;;;10.70;99.90;;;;;;4985887;28;20420;-64
2024/03/11 10:36:46;;;;;;;;;;;10.90;99.90;;;;;;4985849;28;19934;-64
2024/03/11 10:41:50;;;;;;;;;;;10.90;99.90;;;;;;4985965;28;19933;-64
2024/03/11 10:44:40;;;;;;;;;;;11.00;99.90;;;;;;4981012;28;19930;-64
2024/03/11 10:47:21;;;;;;;;;;;11.00;99.90;;;;;;4983891;28;19926;-64
2024/03/11 10:49:58;;;;;;;;;;;11.10;99.90;;;;;;4961762;28;19952;-64
2024/03/11 10:52:33;;;;;;;;;;;11.10;99.90;;;;;;4985580;28;19946;-64
2024/03/11 10:55:06;;;;;;;;;;;11.30;99.90;;;;;;4987864;28;20690;-64
2024/03/11 10:57:38;;;;;;;;;;;11.30;99.90;;;;;;4983630;28;19930;-64
2024/03/11 11:02:57;;;;;;;;;;;11.40;99.90;;;;;;4987918;28;20382;-62
2024/03/11 11:05:32;;;;;;;;;;;11.40;99.90;;;;;;4988118;28;20420;-64
2024/03/11 11:08:04;;;;;;;;;;;11.60;99.90;;;;;;4972050;28;19930;-63
2024/03/11 11:10:36;;;;;;;;;;;11.60;99.90;;;;;;4987568;28;19929;-63
2024/03/11 11:13:08;;;;;;;;;;;11.70;99.90;;;;;;4984792;28;20001;-62
2024/03/11 11:15:41;;;;;;;;;;;11.70;99.90;;;;;;4962214;28;20461;-63
2024/03/11 11:18:15;;;;;;;;;;;11.70;99.90;;;;;;4988903;28;19934;-63
2024/03/11 11:20:47;;;;;;;;;;;11.80;99.90;;;;;;4980796;28;20407;-63
2024/03/11 11:23:29;;;;;;;;;;;11.80;99.90;;;;;;4986920;28;20402;-62
2024/03/11 11:26:02;;;;;;;;;;;11.80;99.90;;;;;;4992019;28;19930;-63
2024/03/11 11:28:38;;;;;;;;;;;11.80;99.90;;;;;;4991870;28;19932;-63
2024/03/11 11:31:14;;;;;;;;;;;11.80;99.90;;;;;;4991198;28;19930;-63
2024/03/11 11:33:49;;;;;;;;;;;11.70;99.90;;;;;;4989773;28;19934;-63
2024/03/11 11:36:30;;;;;;;;;;;11.60;99.90;;;;;;4992790;28;19941;-63
2024/03/11 11:39:13;;;;;;;;;;;11.70;99.90;;;;;;4981969;28;19932;-63
2024/03/11 11:41:45;;;;;;;;;;;11.70;99.90;;;;;;4972281;28;20395;-62
2024/03/11 11:44:39;;;;;;;;;;;11.90;99.90;;;;;;4969899;28;20318;-62
2024/03/11 11:47:14;;;;;;;;;;;11.90;99.90;;;;;;4981168;28;19930;-63
2024/03/11 11:49:43;;;;;;;;;;;12.10;99.90;;;;;;4973876;28;19926;-63
2024/03/11 11:52:14;;;;;;;;;;;12.20;99.90;;;;;;4973881;28;19936;-63
2024/03/11 11:54:46;;;;;;;;;;;12.30;99.90;;;;;;4984912;28;19933;-63
2024/03/11 11:57:21;;;;;;;;;;;12.30;99.90;;;;;;4988615;28;19933;-62
2024/03/11 11:59:53;;;;;;;;;;;12.40;99.90;;;;;;4991482;28;19930;-63
2024/03/11 12:02:26;;;;;;;;;;;12.40;99.90;;;;;;4985891;28;19932;-62
2024/03/11 12:05:01;;;;;;;;;;;12.40;99.90;;;;;;4987103;28;19936;-63
2024/03/11 12:07:38;;;;;;;;;;;12.40;99.90;;;;;;4986020;28;19929;-63
2024/03/11 12:10:10;;;;;;;;;;;12.40;99.90;;;;;;4986155;28;19933;-63
2024/03/11 12:12:44;;;;;;;;;;;12.50;99.90;;;;;;4989747;28;19930;-63
2024/03/11 12:15:21;;;;;;;;;;;12.60;99.90;;;;;;4989299;28;19930;-63
2024/03/11 12:17:54;;;;;;;;;;;12.70;99.90;;;;;;4988619;28;19965;-63
2024/03/11 12:20:30;;;;;;;;;;;12.90;99.90;;;;;;4989518;28;19926;-63
2024/03/11 12:23:03;;;;;;;;;;;12.90;99.90;;;;;;4989776;28;19930;-63
2024/03/11 12:25:36;;;;;;;;;;;12.90;99.90;;;;;;4988750;28;19936;-63
2024/03/11 12:28:14;;;;;;;;;;;13.00;99.90;;;;;;4986991;28;20017;-63
2024/03/11 12:30:50;;;;;;;;;;;13.00;99.90;;;;;;4991161;28;19930;-63
2024/03/11 12:33:23;;;;;;;;;;;13.10;99.90;;;;;;4980995;28;19932;-63
2024/03/11 12:35:55;;;;;;;;;;;13.10;99.90;;;;;;4966253;28;19933;-63
2024/03/11 12:38:29;;;;;;;;;;;13.20;99.90;;;;;;4984344;28;20480;-63
2024/03/11 12:41:01;;;;;;;;;;;13.20;99.90;;;;;;4987156;28;19992;-63
2024/03/11 12:43:35;;;;;;;;;;;13.20;99.90;;;;;;4988251;28;19934;-63
2024/03/11 12:46:10;;;;;;;;;;;13.30;99.90;;;;;;4985342;28;20321;-62
2024/03/11 12:48:43;;;;;;;;;;;13.40;99.90;;;;;;4988773;28;19936;-63
2024/03/11 12:51:17;;;;;;;;;;;13.50;99.90;;;;;;4989852;28;19992;-63
2024/03/11 12:53:49;;;;;;;;;;;13.50;99.90;;;;;;4968731;28;19969;-63
2024/03/11 12:56:22;;;;;;;;;;;13.40;99.90;;;;;;4966653;28;19930;-63
2024/03/11 12:59:01;;;;;;;;;;;13.50;99.90;;;;;;4982798;28;20398;-63
2024/03/11 13:01:33;;;;;;;;;;;13.50;99.90;;;;;;4981197;28;19933;-63
2024/03/11 13:04:15;;;;;;;;;;;13.30;99.90;;;;;;4982118;28;19926;-63
2024/03/11 13:06:47;;;;;;;;;;;13.00;99.90;;;;;;4983673;28;20394;-63
2024/03/11 13:09:27;;;;;;;;;;;13.10;99.90;;;;;;4973822;28;20016;-63
2024/03/11 13:11:56;;;;;;;;;;;13.20;99.90;;;;;;4968346;28;19933;-62
2024/03/11 13:14:28;;;;;;;;;;;13.30;99.90;;;;;;4987480;28;19926;-62
2024/03/11 13:16:59;;;;;;;;;;;13.20;99.90;;;;;;4986551;28;19932;-63
2024/03/11 13:19:26;;;;;;;;;;;13.10;99.90;;;;;;4973594;28;19933;-63
2024/03/11 13:21:58;;;;;;;;;;;13.20;99.90;;;;;;4971119;28;19933;-63
2024/03/11 13:24:35;;;;;;;;;;;13.30;99.90;;;;;;4984088;28;19973;-63
2024/03/11 13:27:07;;;;;;;;;;;13.20;99.90;;;;;;4983009;28;20347;-63
2024/03/11 13:29:39;;;;;;;;;;;13.00;99.90;;;;;;4984087;28;19937;-64
2024/03/11 13:32:14;;;;;;;;;;;12.90;99.90;;;;;;4985181;28;20289;-63
2024/03/11 13:34:46;;;;;;;;;;;12.80;99.90;;;;;;4987474;28;19933;-63
2024/03/11 13:37:19;;;;;;;;;;;12.90;99.90;;;;;;4973476;28;20176;-63
2024/03/11 13:39:52;;;;;;;;;;;13.10;99.90;;;;;;4968029;28;19969;-63
2024/03/11 13:42:24;;;;;;;;;;;13.20;99.90;;;;;;4983257;28;20042;-63
2024/03/11 13:44:56;;;;;;;;;;;13.40;99.90;;;;;;4985568;28;20303;-63
2024/03/11 13:47:29;;;;;;;;;;;13.20;99.90;;;;;;4984331;28;19933;-63
2024/03/11 13:49:57;;;;;;;;;;;13.20;99.90;;;;;;4984088;28;19937;-63
2024/03/11 13:52:29;;;;;;;;;;;13.30;99.90;;;;;;4979569;28;19930;-63
2024/03/11 13:55:01;;;;;;;;;;;13.30;99.90;;;;;;4985474;28;19996;-63
2024/03/11 13:57:33;;;;;;;;;;;13.20;99.90;;;;;;4980622;28;19926;-63
2024/03/11 14:00:09;;;;;;;;;;;13.20;99.90;;;;;;4983513;28;19965;-63
2024/03/11 14:02:41;;;;;;;;;;;13.20;99.90;;;;;;4981317;28;19932;-63
2024/03/11 14:05:16;;;;;;;;;;;13.30;99.90;;;;;;4986695;28;19930;-63
2024/03/11 14:07:48;;;;;;;;;;;13.40;99.90;;;;;;4972272;28;19926;-63
2024/03/11 14:10:24;;;;;;;;;;;13.40;99.90;;;;;;4985212;28;19933;-63
2024/03/11 14:12:55;;;;;;;;;;;13.40;99.90;;;;;;4967448;28;20008;-63
2024/03/11 14:15:29;;;;;;;;;;;13.40;99.90;;;;;;4948628;28;19926;-63
2024/03/11 14:18:04;;;;;;;;;;;13.30;99.90;;;;;;4978302;28;19933;-63
2024/03/11 14:20:31;;;;;;;;;;;13.30;99.90;;;;;;4976380;28;20366;-63
2024/03/11 14:23:05;;;;;;;;;;;13.20;99.90;;;;;;4983523;28;19926;-63
2024/03/11 14:25:32;;;;;;;;;;;13.10;99.90;;;;;;4982201;28;19989;-63
2024/03/11 14:28:05;;;;;;;;;;;13.20;99.90;;;;;;4986259;28;19930;-63
2024/03/11 14:30:37;;;;;;;;;;;13.30;99.90;;;;;;4973575;28;20046;-63
2024/03/11 14:33:09;;;;;;;;;;;13.40;99.90;;;;;;4982353;28;20017;-63
2024/03/11 14:35:42;;;;;;;;;;;13.30;99.90;;;;;;4990348;28;19925;-63
2024/03/11 14:38:13;;;;;;;;;;;13.40;99.90;;;;;;4994188;28;19930;-64
2024/03/11 14:40:45;;;;;;;;;;;13.60;99.90;;;;;;4996434;28;19926;-63
2024/03/11 14:43:18;;;;;;;;;;;13.80;99.90;;;;;;4995546;28;20136;-63
2024/03/11 14:45:50;;;;;;;;;;;13.80;99.90;;;;;;4996756;28;20401;-63
2024/03/11 14:48:23;;;;;;;;;;;13.80;99.90;;;;;;4982888;28;19929;-63
2024/03/11 14:50:58;;;;;;;;;;;13.70;99.90;;;;;;4996569;28;20478;-63
2024/03/11 14:53:31;;;;;;;;;;;13.50;99.90;;;;;;4977776;28;19980;-63
2024/03/11 14:56:03;;;;;;;;;;;13.20;99.90;;;;;;4983435;28;19930;-63
2024/03/11 14:58:35;;;;;;;;;;;13.10;99.90;;;;;;4987751;28;20354;-63
2024/03/11 15:01:07;;;;;;;;;;;12.90;99.90;;;;;;4984388;28;19933;-63